Time;durP1;ratioP1;P1;durP2;ratioP2;P2;SDS_P1;SDS_P2;PMS_P1;PMS_P2;Temp;Humidity;BMP_temperature;BMP_pressure;BME280_temperature;BME280_humidity;BME280_pressure;Samples;Min_cycle;Max_cycle;Signal;HPM_P1;HPM_P2
2022/02/03 00:00:42;;;;;;;;;;;;;;;18.08;57.67;100265.38;5005279;28;1746;-39
2022/02/03 00:03:15;;;;;;;;;;;;;;;18.07;57.89;100269.06;5005262;28;1753;-39
2022/02/03 00:05:48;;;;;;;;;;;;;;;18.00;57.61;100279.44;5006517;28;1498;-39
2022/02/03 00:08:25;;;;;;;;;;;;;;;18.02;57.66;100279.31;5003135;28;1019;-40
2022/02/03 00:16:46;;;;;;;;;;;;;;;17.97;57.10;100297.66;4998676;28;1757;-40
2022/02/03 00:22:12;;;;;;;;;;;;;;;17.80;58.10;100299.97;5005961;28;1586;-39
2022/02/03 00:24:50;;;;;;;;;;;;;;;17.78;58.08;100315.31;5000827;28;1792;-39
2022/02/03 00:27:24;;;;;;;;;;;;;;;17.79;57.81;100308.16;5002211;28;1529;-39
2022/02/03 00:29:57;;;;;;;;;;;;;;;17.82;58.04;100300.66;4997076;28;1906;-42
2022/02/03 00:35:29;;;;;;;;;;;;;;;17.81;57.65;100304.34;5003748;28;1585;-39
2022/02/03 00:38:15;;;;;;;;;;;;;;;17.79;57.81;100311.66;5003266;28;1067;-39
2022/02/03 00:48:58;;;;;;;;;;;;;;;17.63;58.14;100284.63;5002632;28;1768;-39
2022/02/03 00:51:26;;;;;;;;;;;;;;;17.71;58.05;100292.78;4999888;28;1979;-39
2022/02/03 00:53:55;;;;;;;;;;;;;;;17.67;58.22;100288.72;5000375;28;1125;-39
2022/02/03 00:56:23;;;;;;;;;;;;;;;17.61;58.14;100297.28;5002121;28;2055;-40
2022/02/03 00:58:52;;;;;;;;;;;;;;;17.55;58.45;100281.78;5000294;28;1601;-40
2022/02/03 01:01:19;;;;;;;;;;;;;;;17.57;58.33;100278.00;4999542;28;1667;-39
2022/02/03 01:03:50;;;;;;;;;;;;;;;17.60;58.28;100284.88;5002261;28;1731;-39
2022/02/03 01:06:19;;;;;;;;;;;;;;;17.67;57.79;100291.38;5002232;28;1759;-40
2022/02/03 01:08:47;;;;;;;;;;;;;;;17.68;58.00;100293.06;5001522;28;1015;-39
2022/02/03 01:11:19;;;;;;;;;;;;;;;17.69;58.28;100292.09;5000223;28;1957;-39
2022/02/03 01:13:51;;;;;;;;;;;;;;;17.66;58.12;100295.03;4999949;28;1720;-39
2022/02/03 01:16:29;;;;;;;;;;;;;;;17.67;57.99;100294.06;5001716;28;1624;-39
2022/02/03 01:19:21;;;;;;;;;;;;;;;17.62;58.26;100281.09;5002839;28;1685;-39
2022/02/03 01:43:45;;;;;;;;;;;;;;;17.55;58.13;100316.53;5002312;28;1656;-40
2022/02/03 01:46:13;;;;;;;;;;;;;;;17.55;58.16;100324.53;5001727;28;1749;-39
2022/02/03 01:48:52;;;;;;;;;;;;;;;17.61;58.25;100321.34;5001517;28;1745;-40
2022/02/03 01:51:41;;;;;;;;;;;;;;;17.79;57.71;100337.56;4995590;28;2062;-40
2022/02/03 01:54:09;;;;;;;;;;;;;;;17.87;57.39;100343.94;4995334;28;1848;-39
2022/02/03 01:56:40;;;;;;;;;;;;;;;17.94;57.41;100340.72;5004718;28;1824;-39
2022/02/03 01:59:13;;;;;;;;;;;;;;;17.94;57.20;100341.53;5002021;28;1908;-39
2022/02/03 02:01:40;;;;;;;;;;;;;;;17.97;57.24;100343.13;5001607;28;1701;-39
2022/02/03 02:04:08;;;;;;;;;;;;;;;17.92;57.37;100332.81;4999003;28;1783;-40
2022/02/03 02:06:55;;;;;;;;;;;;;;;17.91;57.23;100347.19;5002042;28;1716;-39
2022/02/03 02:09:28;;;;;;;;;;;;;;;17.89;57.15;100344.66;4991516;28;1925;-40
2022/02/03 02:12:03;;;;;;;;;;;;;;;17.77;57.74;100340.38;5003054;28;1931;-39
2022/02/03 02:37:13;;;;;;;;;;;;;;;17.72;57.81;100366.69;5000447;28;1828;-39
2022/02/03 02:39:52;;;;;;;;;;;;;;;17.73;57.72;100378.25;4993006;28;1665;-40
2022/02/03 02:42:32;;;;;;;;;;;;;;;17.72;57.81;100384.56;5000768;28;1807;-40
2022/02/03 02:45:03;;;;;;;;;;;;;;;17.73;57.27;100387.09;5001765;28;1535;-41
2022/02/03 02:47:36;;;;;;;;;;;;;;;17.71;57.74;100407.78;4997750;28;1794;-39
2022/02/03 02:50:07;;;;;;;;;;;;;;;17.67;57.71;100393.84;4992043;28;1906;-40
2022/02/03 02:52:41;;;;;;;;;;;;;;;17.71;57.61;100413.13;4991640;28;1832;-40
2022/02/03 02:55:17;;;;;;;;;;;;;;;17.64;57.59;100396.78;4991878;28;2011;-40
2022/02/03 03:03:33;;;;;;;;;;;;;;;17.64;57.78;100403.94;5064131;28;1793;-39
2022/02/03 03:29:27;;;;;;;;;;;;;;;17.69;57.55;100447.19;5019182;28;1261;-39
2022/02/03 03:32:18;;;;;;;;;;;;;;;17.67;57.48;100450.00;5016436;28;1981;-39
2022/02/03 03:35:02;;;;;;;;;;;;;;;17.65;57.54;100451.97;5055952;28;1980;-39
2022/02/03 03:37:44;;;;;;;;;;;;;;;17.66;57.37;100450.13;5067081;28;1542;-39
2022/02/03 03:40:11;;;;;;;;;;;;;;;17.66;57.63;100466.16;5055059;28;1574;-38
2022/02/03 03:42:40;;;;;;;;;;;;;;;17.65;57.72;100473.34;5054482;28;1849;-39
2022/02/03 03:45:11;;;;;;;;;;;;;;;17.67;57.76;100471.38;5059817;28;1654;-40
2022/02/03 03:47:47;;;;;;;;;;;;;;;17.62;57.54;100467.41;5059771;28;1066;-38
2022/02/03 03:50:17;;;;;;;;;;;;;;;17.63;57.59;100488.69;5063834;28;1972;-38
2022/02/03 03:52:52;;;;;;;;;;;;;;;17.63;57.52;100482.50;5055007;28;1355;-38
2022/02/03 03:55:39;;;;;;;;;;;;;;;17.60;57.90;100474.72;5056964;28;1721;-39
2022/02/03 03:58:34;;;;;;;;;;;;;;;17.57;57.43;100466.97;5061261;28;1430;-38
2022/02/03 04:38:53;;;;;;;;;;;;;;;18.21;56.06;100565.69;5073926;28;762;-39
2022/02/03 04:41:51;;;;;;;;;;;;;;;18.51;55.32;100558.59;5069417;28;1390;-38
2022/02/03 04:56:20;;;;;;;;;;;;;;;18.94;53.90;100575.31;5071765;28;1792;-39
2022/02/03 04:59:23;;;;;;;;;;;;;;;18.84;54.60;100584.22;5064536;28;1172;-39
2022/02/03 05:02:15;;;;;;;;;;;;;;;18.75;54.67;100595.72;5063896;28;1488;-39
2022/02/03 05:04:57;;;;;;;;;;;;;;;18.59;55.51;100590.88;5069718;28;1821;-39
2022/02/03 05:07:48;;;;;;;;;;;;;;;18.53;55.41;100620.91;5073442;28;1793;-39
2022/02/03 05:10:42;;;;;;;;;;;;;;;18.44;55.65;100635.97;5071780;28;1797;-41
2022/02/03 05:13:40;;;;;;;;;;;;;;;18.55;54.67;100645.72;5064533;28;1750;-39
2022/02/03 05:19:47;;;;;;;;;;;;;;;19.18;54.38;100650.84;5071381;28;1460;-39
2022/02/03 05:32:17;;;;;;;;;;;;;;;19.53;54.06;100680.75;5072765;28;1886;-38
2022/02/03 05:46:25;;;;;;;;;;;;;;;19.74;52.23;100750.41;5033922;27;11891;-38
2022/02/03 05:49:04;;;;;;;;;;;;;;;19.64;52.56;100740.47;5064294;28;1335;-37
2022/02/03 06:02:51;;;;;;;;;;;;;;;19.16;54.16;100767.19;5065010;28;1812;-40
2022/02/03 06:05:22;;;;;;;;;;;;;;;19.07;54.05;100788.47;5060688;28;1993;-41
2022/02/03 06:07:57;;;;;;;;;;;;;;;19.02;54.20;100796.09;5058989;28;1608;-40
2022/02/03 06:13:12;;;;;;;;;;;;;;;18.94;55.11;100795.06;5060431;28;1720;-40
2022/02/03 06:15:47;;;;;;;;;;;;;;;18.91;54.10;100793.50;5061608;28;1710;-40
2022/02/03 06:21:28;;;;;;;;;;;;;;;18.86;55.16;100807.31;5060155;28;1739;-40
2022/02/03 06:24:02;;;;;;;;;;;;;;;18.87;54.99;100792.91;5068775;28;1965;-40
2022/02/03 06:29:15;;;;;;;;;;;;;;;18.88;55.08;100808.03;5061701;28;1893;-39
2022/02/03 06:31:43;;;;;;;;;;;;;;;18.83;54.96;100801.34;5059443;28;1746;-39
2022/02/03 06:34:11;;;;;;;;;;;;;;;18.84;55.60;100805.72;5066866;28;1612;-39
2022/02/03 06:36:38;;;;;;;;;;;;;;;18.87;55.76;100800.94;5063394;28;1910;-40
2022/02/03 06:39:11;;;;;;;;;;;;;;;18.90;55.37;100813.25;5070046;28;1422;-40
2022/02/03 06:41:38;;;;;;;;;;;;;;;18.94;55.32;100812.00;5063399;28;1991;-40
2022/02/03 06:44:05;;;;;;;;;;;;;;;18.97;56.74;100821.59;5058797;28;1910;-39
2022/02/03 06:46:32;;;;;;;;;;;;;;;19.10;56.58;100826.72;5059006;28;1658;-39
2022/02/03 06:49:09;;;;;;;;;;;;;;;19.07;56.96;100819.81;5063017;28;1568;-40
2022/02/03 06:51:44;;;;;;;;;;;;;;;19.20;58.05;100822.22;5062267;28;1824;-41
2022/02/03 06:54:18;;;;;;;;;;;;;;;19.24;57.44;100843.31;5063550;28;1689;-39
2022/02/03 06:56:51;;;;;;;;;;;;;;;19.33;57.75;100849.66;5047316;28;1777;-39
2022/02/03 06:59:24;;;;;;;;;;;;;;;19.39;58.11;100838.41;5045172;28;1746;-39
2022/02/03 07:01:50;;;;;;;;;;;;;;;19.33;58.67;100836.25;5041378;28;1758;-39
2022/02/03 07:04:21;;;;;;;;;;;;;;;19.36;59.77;100836.00;5048979;28;1984;-38
2022/02/03 07:06:48;;;;;;;;;;;;;;;19.41;59.67;100847.16;5045527;28;1673;-37
2022/02/03 07:09:15;;;;;;;;;;;;;;;19.42;59.34;100854.22;5040030;28;1091;-37
2022/02/03 07:11:42;;;;;;;;;;;;;;;19.43;59.79;100866.63;5041350;28;1653;-38
2022/02/03 07:14:10;;;;;;;;;;;;;;;19.41;59.09;100867.78;5049895;28;2133;-37
2022/02/03 07:16:45;;;;;;;;;;;;;;;19.47;59.75;100873.44;5045438;28;1585;-37
2022/02/03 07:19:12;;;;;;;;;;;;;;;19.58;59.66;100882.38;5045106;28;1936;-38
2022/02/03 07:21:39;;;;;;;;;;;;;;;19.57;58.90;100867.25;5042414;28;1679;-38
2022/02/03 07:24:07;;;;;;;;;;;;;;;19.69;58.99;100866.16;5050122;28;1977;-37
2022/02/03 07:26:34;;;;;;;;;;;;;;;19.67;58.73;100884.22;5045387;28;1646;-37
2022/02/03 07:29:00;;;;;;;;;;;;;;;19.51;58.78;100859.75;5049005;28;1826;-40
2022/02/03 07:31:27;;;;;;;;;;;;;;;19.46;59.33;100878.94;5049494;28;2087;-37
2022/02/03 07:33:55;;;;;;;;;;;;;;;19.33;58.70;100871.13;5050371;28;1615;-38
2022/02/03 07:36:21;;;;;;;;;;;;;;;19.08;57.65;100884.00;5043192;28;1741;-38
2022/02/03 07:38:47;;;;;;;;;;;;;;;19.12;57.41;100867.63;5043496;28;1412;-38
2022/02/03 07:41:15;;;;;;;;;;;;;;;19.17;57.42;100881.50;5043023;28;1535;-38
2022/02/03 07:43:42;;;;;;;;;;;;;;;19.20;57.22;100886.56;5044645;28;1596;-37
2022/02/03 07:46:08;;;;;;;;;;;;;;;19.19;57.36;100888.41;5044780;28;1905;-38
2022/02/03 07:48:35;;;;;;;;;;;;;;;19.20;57.63;100881.22;5053459;28;1444;-38
2022/02/03 07:51:01;;;;;;;;;;;;;;;19.28;57.77;100900.19;5051119;28;1643;-38
2022/02/03 07:53:28;;;;;;;;;;;;;;;19.29;57.19;100907.22;5049730;28;1081;-38
2022/02/03 07:55:54;;;;;;;;;;;;;;;19.27;56.98;100911.88;5047906;28;1658;-39
2022/02/03 07:58:22;;;;;;;;;;;;;;;19.24;57.18;100914.84;5044652;28;1604;-38
2022/02/03 08:00:48;;;;;;;;;;;;;;;19.25;57.03;100905.81;5045341;28;1814;-38
2022/02/03 08:03:15;;;;;;;;;;;;;;;18.97;58.79;100916.22;5047276;28;1785;-38
2022/02/03 08:05:44;;;;;;;;;;;;;;;18.93;55.95;100896.03;5046242;28;1906;-38
2022/02/03 08:08:18;;;;;;;;;;;;;;;19.24;55.24;100922.88;5043304;28;1618;-38
2022/02/03 08:10:48;;;;;;;;;;;;;;;19.25;55.27;100922.72;5042145;28;1949;-37
2022/02/03 08:13:20;;;;;;;;;;;;;;;19.23;55.37;100918.50;5048689;28;1734;-38
2022/02/03 08:15:51;;;;;;;;;;;;;;;19.26;55.96;100934.31;5041658;28;1812;-38
2022/02/03 08:18:20;;;;;;;;;;;;;;;19.32;56.54;100928.44;5046612;28;1710;-37
2022/02/03 08:20:51;;;;;;;;;;;;;;;19.33;56.67;100930.13;5049162;28;1598;-38
2022/02/03 08:23:54;;;;;;;;;;;;;;;19.33;57.12;100923.91;5052515;28;1411;-38
2022/02/03 08:26:29;;;;;;;;;;;;;;;19.34;57.20;100926.47;5047500;28;1935;-38
2022/02/03 08:29:13;;;;;;;;;;;;;;;19.33;56.90;100934.63;5050716;28;1660;-38
2022/02/03 08:31:49;;;;;;;;;;;;;;;19.34;56.60;100929.16;5048354;28;1470;-38
2022/02/03 08:34:22;;;;;;;;;;;;;;;19.35;56.57;100949.59;5042373;28;1506;-38
2022/02/03 08:36:48;;;;;;;;;;;;;;;19.32;56.11;100946.31;5041748;28;1481;-38
2022/02/03 08:39:19;;;;;;;;;;;;;;;19.30;56.64;100951.84;5039793;28;1437;-38
2022/02/03 08:41:46;;;;;;;;;;;;;;;19.28;56.53;100965.38;5043564;28;1982;-38
2022/02/03 08:44:12;;;;;;;;;;;;;;;19.33;56.97;100966.81;5047761;28;1929;-38
2022/02/03 08:46:39;;;;;;;;;;;;;;;19.33;57.11;100973.00;5043781;28;1973;-38
2022/02/03 08:49:07;;;;;;;;;;;;;;;19.31;57.08;100969.63;5045362;28;1461;-38
2022/02/03 08:51:34;;;;;;;;;;;;;;;19.36;56.48;100978.13;5043677;28;1643;-38
2022/02/03 08:54:07;;;;;;;;;;;;;;;19.40;56.66;100990.28;5040482;28;997;-38
2022/02/03 08:56:42;;;;;;;;;;;;;;;19.41;57.08;100996.50;5041204;28;1892;-38
2022/02/03 08:59:26;;;;;;;;;;;;;;;19.35;56.30;100976.41;5048189;28;1563;-38
2022/02/03 09:41:00;;;;;;;;;;;;;;;19.18;58.16;100999.31;5048422;28;1736;-38
2022/02/03 10:00:00;;;;;;;;;;;;;;;19.03;57.90;100993.44;5027425;28;2390;-38
2022/02/03 10:02:30;;;;;;;;;;;;;;;19.01;57.92;101000.75;5047537;28;1340;-38
2022/02/03 10:04:59;;;;;;;;;;;;;;;18.99;58.00;101002.72;5044808;28;1971;-38
2022/02/03 10:07:32;;;;;;;;;;;;;;;18.96;58.22;101005.66;5044701;28;1688;-39
2022/02/03 10:10:07;;;;;;;;;;;;;;;18.96;57.75;101002.09;5038337;28;1708;-38
2022/02/03 10:12:35;;;;;;;;;;;;;;;18.87;58.08;100998.38;5042553;28;1230;-38
2022/02/03 10:15:02;;;;;;;;;;;;;;;18.79;56.57;101006.19;5042335;28;1616;-38
2022/02/03 10:17:32;;;;;;;;;;;;;;;18.74;56.76;101021.78;5043788;28;1548;-39
2022/02/03 10:19:59;;;;;;;;;;;;;;;18.81;55.64;101020.34;5046199;28;1478;-38
2022/02/03 10:22:27;;;;;;;;;;;;;;;18.81;56.45;101031.06;5040820;28;1934;-38
2022/02/03 10:25:02;;;;;;;;;;;;;;;18.82;55.42;101038.09;5048698;28;1965;-38
2022/02/03 10:27:35;;;;;;;;;;;;;;;18.85;55.92;101027.13;5043731;28;1763;-38
2022/02/03 10:30:13;;;;;;;;;;;;;;;18.95;56.67;101032.59;5043478;28;1573;-38
2022/02/03 10:32:40;;;;;;;;;;;;;;;18.96;57.19;101045.00;5052662;28;1623;-39
2022/02/03 10:35:18;;;;;;;;;;;;;;;19.01;56.60;101040.09;5047361;28;1079;-38
2022/02/03 10:37:49;;;;;;;;;;;;;;;19.06;56.29;101019.97;5046642;28;2045;-39
2022/02/03 10:40:42;;;;;;;;;;;;;;;19.02;57.76;101023.91;5053287;28;1691;-40
2022/02/03 10:43:29;;;;;;;;;;;;;;;19.02;58.14;101023.03;5047209;28;1746;-40
2022/02/03 10:46:13;;;;;;;;;;;;;;;19.04;58.26;101024.63;5050114;28;1910;-40
2022/02/03 10:49:09;;;;;;;;;;;;;;;19.10;57.24;101035.78;5046378;28;1522;-40
2022/02/03 10:51:52;;;;;;;;;;;;;;;19.11;58.28;101027.63;5051609;28;1507;-40
2022/02/03 10:54:40;;;;;;;;;;;;;;;19.22;57.40;101034.78;5038293;28;1693;-38
2022/02/03 10:57:30;;;;;;;;;;;;;;;19.19;57.28;101024.31;5046472;28;1146;-39
2022/02/03 11:03:04;;;;;;;;;;;;;;;19.17;58.56;101042.34;5008289;28;1644;-39
2022/02/03 11:08:31;;;;;;;;;;;;;;;19.14;57.83;101043.47;5003301;28;1252;-39
2022/02/03 11:11:01;;;;;;;;;;;;;;;19.09;58.01;101051.03;5033122;28;2406;-38
2022/02/03 11:13:33;;;;;;;;;;;;;;;19.10;57.85;101035.78;5047234;28;1752;-38
2022/02/03 11:16:01;;;;;;;;;;;;;;;19.08;57.64;101043.97;5043762;28;1491;-39
2022/02/03 11:18:28;;;;;;;;;;;;;;;19.01;58.31;101042.78;5041831;28;1617;-39
2022/02/03 11:20:54;;;;;;;;;;;;;;;19.01;58.25;101056.19;5054470;28;1412;-40
2022/02/03 11:23:32;;;;;;;;;;;;;;;18.95;59.06;101043.31;5046385;28;1475;-40
2022/02/03 11:26:07;;;;;;;;;;;;;;;18.84;58.86;101036.16;5040939;28;1906;-36
2022/02/03 11:34:39;;;;;;;;;;;;;;;18.68;58.91;101045.44;5029789;28;1772;-39
2022/02/03 11:54:46;;;;;;;;;;;;;;;18.90;59.74;101041.03;5053634;28;1878;-38
2022/02/03 12:17:15;;;;;;;;;;;;;;;19.40;59.07;101037.72;5040070;28;1876;-39
2022/02/03 12:20:14;;;;;;;;;;;;;;;19.24;59.54;101030.13;5045925;28;1901;-39
2022/02/03 12:22:55;;;;;;;;;;;;;;;19.58;58.82;101029.91;5045610;28;1647;-39
2022/02/03 12:25:31;;;;;;;;;;;;;;;19.47;58.11;101033.50;5045633;28;1975;-39
2022/02/03 12:28:12;;;;;;;;;;;;;;;19.32;58.83;101040.19;5046981;28;2030;-38
2022/02/03 12:30:54;;;;;;;;;;;;;;;19.33;59.18;101039.22;5050927;28;1517;-39
2022/02/03 12:38:53;;;;;;;;;;;;;;;19.35;59.14;101042.59;5050526;28;1576;-39
2022/02/03 12:41:22;;;;;;;;;;;;;;;19.48;58.45;101043.28;5045329;28;1575;-40
2022/02/03 12:43:55;;;;;;;;;;;;;;;19.30;59.92;101047.50;5050147;28;1738;-38
2022/02/03 12:46:22;;;;;;;;;;;;;;;19.22;59.39;101040.97;5042780;28;1910;-39
2022/02/03 12:48:54;;;;;;;;;;;;;;;19.27;59.20;101054.81;5042140;28;1782;-39
2022/02/03 12:51:23;;;;;;;;;;;;;;;19.33;58.80;101053.47;5044195;28;1482;-39
2022/02/03 12:53:49;;;;;;;;;;;;;;;19.29;58.16;101057.38;5045693;28;1773;-39
2022/02/03 12:56:16;;;;;;;;;;;;;;;19.26;58.75;101071.06;5043877;28;1583;-38
2022/02/03 12:58:45;;;;;;;;;;;;;;;19.18;58.07;101065.47;5045919;28;1634;-39
2022/02/03 13:01:16;;;;;;;;;;;;;;;19.28;58.93;101061.91;5045326;28;1836;-39
2022/02/03 13:03:46;;;;;;;;;;;;;;;19.29;57.83;101065.44;5046494;28;1527;-39
2022/02/03 13:06:16;;;;;;;;;;;;;;;19.22;58.40;101066.94;5044408;28;1981;-40
2022/02/03 13:08:47;;;;;;;;;;;;;;;19.20;58.71;101064.38;5045392;28;1079;-40
2022/02/03 13:11:18;;;;;;;;;;;;;;;19.14;58.16;101074.75;5045327;28;1654;-39
2022/02/03 13:13:57;;;;;;;;;;;;;;;19.04;59.40;101075.56;5044765;28;1290;-39
2022/02/03 13:16:23;;;;;;;;;;;;;;;18.99;58.70;101061.66;5046155;28;1320;-40
2022/02/03 13:19:09;;;;;;;;;;;;;;;19.06;58.18;101072.75;5044491;28;1518;-40
2022/02/03 13:21:49;;;;;;;;;;;;;;;19.10;58.25;101076.00;5049421;28;1701;-38
2022/02/03 13:24:37;;;;;;;;;;;;;;;19.08;58.56;101077.00;5038866;28;1957;-38
2022/02/03 13:27:10;;;;;;;;;;;;;;;19.16;57.59;101067.44;5042778;28;1913;-38
2022/02/03 13:29:47;;;;;;;;;;;;;;;19.05;57.71;101058.47;5046361;28;2036;-39
2022/02/03 13:32:21;;;;;;;;;;;;;;;19.09;58.05;101072.47;5050571;28;1513;-39
2022/02/03 13:34:54;;;;;;;;;;;;;;;19.04;57.86;101070.19;5046445;28;1713;-39
2022/02/03 13:37:25;;;;;;;;;;;;;;;19.10;57.69;101073.31;5041082;28;1479;-40
2022/02/03 13:40:04;;;;;;;;;;;;;;;19.07;57.41;101059.19;5047723;28;1778;-39
2022/02/03 13:42:31;;;;;;;;;;;;;;;19.14;57.89;101058.69;5041844;28;1892;-39
2022/02/03 13:45:01;;;;;;;;;;;;;;;19.08;58.16;101065.44;5048933;28;1495;-40
2022/02/03 13:47:34;;;;;;;;;;;;;;;19.03;57.38;101070.31;5048032;28;1965;-39
2022/02/03 13:50:02;;;;;;;;;;;;;;;18.99;57.72;101067.03;5044715;28;1142;-39
2022/02/03 13:52:35;;;;;;;;;;;;;;;19.07;57.55;101077.13;5042004;28;1771;-40
2022/02/03 14:20:42;;;;;;;;;;;;;;;19.04;57.52;101064.00;5014466;28;1642;-39
2022/02/03 14:28:37;;;;;;;;;;;;;;;19.03;57.74;101071.16;5046576;28;1611;-38
2022/02/03 14:31:06;;;;;;;;;;;;;;;19.04;57.79;101075.56;5046391;28;1898;-39
2022/02/03 14:33:36;;;;;;;;;;;;;;;19.03;58.03;101067.63;5046610;28;1648;-39
2022/02/03 14:36:07;;;;;;;;;;;;;;;19.01;58.12;101072.28;5043977;28;1871;-39
2022/02/03 14:38:41;;;;;;;;;;;;;;;19.02;57.81;101082.00;5045645;28;1562;-39
2022/02/03 14:41:13;;;;;;;;;;;;;;;18.99;58.29;101077.75;5042354;28;1619;-39
2022/02/03 14:43:40;;;;;;;;;;;;;;;19.00;57.83;101075.91;5046826;28;1807;-39
2022/02/03 14:46:12;;;;;;;;;;;;;;;19.00;58.29;101084.81;5043346;28;1910;-39
2022/02/03 14:48:42;;;;;;;;;;;;;;;18.97;58.65;101074.34;5045745;28;1597;-39
2022/02/03 14:51:08;;;;;;;;;;;;;;;18.98;57.81;101068.03;5049874;28;1835;-40
2022/02/03 14:53:52;;;;;;;;;;;;;;;18.99;57.77;101083.13;5047794;28;1155;-39
2022/02/03 14:59:02;;;;;;;;;;;;;;;18.99;57.87;101080.44;5045791;28;1393;-39
2022/02/03 15:01:32;;;;;;;;;;;;;;;18.95;58.30;101081.66;5043828;28;1543;-39
2022/02/03 15:03:59;;;;;;;;;;;;;;;18.95;57.71;101075.47;5046493;28;1666;-39
2022/02/03 15:06:28;;;;;;;;;;;;;;;18.94;58.02;101092.50;5045627;28;1985;-39
2022/02/03 15:09:10;;;;;;;;;;;;;;;18.93;58.76;101094.34;5043358;28;1088;-39
2022/02/03 15:11:54;;;;;;;;;;;;;;;18.93;58.34;101090.81;5047382;28;1911;-38
2022/02/03 15:14:21;;;;;;;;;;;;;;;18.88;58.07;101085.84;5047511;28;1795;-40
2022/02/03 15:16:49;;;;;;;;;;;;;;;18.86;58.76;101087.78;5045029;28;1966;-39
2022/02/03 15:19:15;;;;;;;;;;;;;;;18.84;58.24;101081.69;5045211;28;1841;-39
2022/02/03 15:21:42;;;;;;;;;;;;;;;18.86;57.80;101093.13;5041973;28;1685;-39
2022/02/03 15:24:09;;;;;;;;;;;;;;;18.84;58.06;101100.44;5047525;28;1073;-39
2022/02/03 15:26:36;;;;;;;;;;;;;;;18.86;58.20;101099.38;5049749;28;1983;-39
2022/02/03 15:29:02;;;;;;;;;;;;;;;18.89;57.93;101098.25;5044977;28;1732;-39
2022/02/03 15:31:31;;;;;;;;;;;;;;;18.85;58.52;101091.44;5045139;28;1653;-38
2022/02/03 15:34:05;;;;;;;;;;;;;;;18.90;58.22;101109.81;5045022;28;1480;-39
2022/02/03 15:36:33;;;;;;;;;;;;;;;18.91;58.29;101104.34;5044610;28;1668;-39
2022/02/03 15:39:04;;;;;;;;;;;;;;;18.89;58.63;101114.34;5041733;28;1415;-39
2022/02/03 15:41:30;;;;;;;;;;;;;;;18.88;57.61;101113.50;5045615;28;1663;-39
2022/02/03 15:43:59;;;;;;;;;;;;;;;18.88;57.66;101109.97;5044440;28;1664;-39
2022/02/03 15:46:28;;;;;;;;;;;;;;;18.88;58.01;101128.72;5043035;28;1985;-39
2022/02/03 15:49:01;;;;;;;;;;;;;;;18.84;57.97;101125.44;5044456;28;1735;-39
2022/02/03 15:57:05;;;;;;;;;;;;;;;18.87;57.58;101127.00;5046728;28;1609;-40
2022/02/03 16:13:41;;;;;;;;;;;;;;;18.85;58.08;101134.31;5042487;28;1805;-39
2022/02/03 16:18:52;;;;;;;;;;;;;;;18.86;57.33;101157.44;5043865;28;1736;-39
2022/02/03 16:21:31;;;;;;;;;;;;;;;18.86;57.84;101161.00;5044018;28;1834;-39
2022/02/03 16:24:15;;;;;;;;;;;;;;;18.82;58.19;101153.31;5043962;28;1010;-39
2022/02/03 16:51:27;;;;;;;;;;;;;;;18.86;56.96;101184.25;5041377;28;1579;-40
2022/02/03 16:53:54;;;;;;;;;;;;;;;18.87;57.10;101199.34;5041313;28;1089;-39
2022/02/03 16:56:24;;;;;;;;;;;;;;;18.84;57.86;101183.50;5042690;28;1754;-39
2022/02/03 16:58:51;;;;;;;;;;;;;;;18.86;57.47;101185.13;5043303;28;1644;-39
2022/02/03 17:01:17;;;;;;;;;;;;;;;18.84;57.84;101189.75;5043405;28;1777;-38
2022/02/03 17:03:44;;;;;;;;;;;;;;;18.86;56.98;101189.59;5043665;28;1504;-39
2022/02/03 17:06:12;;;;;;;;;;;;;;;18.82;57.42;101188.16;5044253;28;1912;-39
2022/02/03 17:08:39;;;;;;;;;;;;;;;18.83;57.47;101189.88;5043380;28;1084;-39
2022/02/03 17:11:05;;;;;;;;;;;;;;;18.82;57.47;101194.38;5040934;28;1762;-39
2022/02/03 17:13:33;;;;;;;;;;;;;;;18.83;57.33;101195.22;5043386;28;1783;-39
2022/02/03 17:15:59;;;;;;;;;;;;;;;18.82;57.00;101193.50;5043980;28;1806;-39
2022/02/03 17:18:26;;;;;;;;;;;;;;;18.82;57.05;101204.22;5044292;28;1704;-39
2022/02/03 17:20:53;;;;;;;;;;;;;;;18.85;57.26;101204.00;5043229;28;1530;-39
2022/02/03 17:23:22;;;;;;;;;;;;;;;18.84;56.88;101210.31;5044754;28;1026;-39
2022/02/03 17:25:55;;;;;;;;;;;;;;;18.85;57.37;101209.34;5038055;28;1912;-39
2022/02/03 17:28:26;;;;;;;;;;;;;;;18.83;57.76;101211.31;5043082;28;1906;-39
2022/02/03 17:30:59;;;;;;;;;;;;;;;18.83;56.79;101205.94;5043314;28;1705;-38
2022/02/03 17:53:29;;;;;;;;;;;;;;;18.77;57.08;101219.81;5044638;28;1965;-39
2022/02/03 18:09:34;;;;;;;;;;;;;;;18.80;57.12;101230.28;5032705;28;2265;-39
2022/02/03 18:17:51;;;;;;;;;;;;;;;18.79;56.89;101241.97;5044605;28;812;-39
2022/02/03 18:26:24;;;;;;;;;;;;;;;18.81;56.99;101230.19;5046925;28;1937;-39
2022/02/03 18:32:01;;;;;;;;;;;;;;;18.85;56.95;101226.28;5046496;28;1416;-39
2022/02/03 18:34:50;;;;;;;;;;;;;;;18.99;56.63;101240.41;5044798;28;1817;-38
2022/02/03 18:37:33;;;;;;;;;;;;;;;18.79;56.64;101248.19;5039638;28;1688;-39
2022/02/03 18:50:53;;;;;;;;;;;;;;;18.87;56.37;101287.78;5029170;28;1849;-40
2022/02/03 18:53:29;;;;;;;;;;;;;;;18.84;55.61;101283.53;5047954;28;1603;-38
2022/02/03 18:56:04;;;;;;;;;;;;;;;18.83;56.41;101286.31;5045844;28;1708;-38
2022/02/03 18:58:46;;;;;;;;;;;;;;;18.79;56.25;101285.72;5046427;28;1660;-38
2022/02/03 19:01:45;;;;;;;;;;;;;;;18.71;57.08;101298.84;5045276;28;1605;-39
2022/02/03 19:15:37;;;;;;;;;;;;;;;18.59;57.34;101306.00;5043204;28;1692;-38
2022/02/03 19:24:04;;;;;;;;;;;;;;;18.47;57.98;101325.72;5050783;28;1490;-39
2022/02/03 19:27:08;;;;;;;;;;;;;;;18.52;57.88;101336.91;5046473;28;1921;-42
2022/02/03 20:05:45;;;;;;;;;;;;;;;19.78;55.27;101360.97;5138992;27;1491;-37
2022/02/03 20:08:16;;;;;;;;;;;;;;;19.92;55.56;101363.34;5127740;27;1419;-32
2022/02/03 20:10:45;;;;;;;;;;;;;;;19.82;55.89;101365.94;5127471;27;1427;-33
2022/02/03 20:13:12;;;;;;;;;;;;;;;19.74;54.78;101367.56;5129074;28;1782;-33
2022/02/03 20:15:40;;;;;;;;;;;;;;;19.70;55.75;101374.13;5128836;27;1544;-32
2022/02/03 20:18:10;;;;;;;;;;;;;;;19.62;55.33;101386.34;5129317;27;1507;-33
2022/02/03 20:20:38;;;;;;;;;;;;;;;19.57;55.37;101383.16;5124334;27;1679;-32
2022/02/03 20:23:09;;;;;;;;;;;;;;;19.54;56.54;101386.09;5130308;27;1774;-32
2022/02/03 20:25:36;;;;;;;;;;;;;;;19.51;55.94;101382.81;5129923;27;1956;-32
2022/02/03 20:28:03;;;;;;;;;;;;;;;19.53;56.47;101391.59;5127535;27;1840;-32
2022/02/03 20:30:29;;;;;;;;;;;;;;;19.51;55.97;101393.53;5128837;27;1894;-32
2022/02/03 20:32:56;;;;;;;;;;;;;;;19.41;56.02;101390.75;5129916;27;1725;-33
2022/02/03 20:35:22;;;;;;;;;;;;;;;19.38;56.13;101383.81;5129936;27;1826;-33
2022/02/03 20:37:50;;;;;;;;;;;;;;;19.33;56.55;101375.25;5130707;27;1543;-34
2022/02/03 20:40:17;;;;;;;;;;;;;;;19.38;56.04;101394.53;5145121;27;1620;-33
2022/02/03 20:42:43;;;;;;;;;;;;;;;19.38;56.50;101383.81;5150783;27;1912;-32
2022/02/03 20:45:10;;;;;;;;;;;;;;;19.43;56.57;101391.47;5149437;27;1917;-32
2022/02/03 20:47:36;;;;;;;;;;;;;;;19.37;57.21;101398.16;5151044;27;1660;-33
2022/02/03 20:50:05;;;;;;;;;;;;;;;19.32;57.23;101400.38;5149502;27;2011;-32
2022/02/03 20:52:31;;;;;;;;;;;;;;;19.30;56.82;101396.09;5151174;27;1609;-32
2022/02/03 20:54:59;;;;;;;;;;;;;;;19.24;57.42;101392.09;5151186;27;2020;-32
2022/02/03 20:57:26;;;;;;;;;;;;;;;19.35;56.42;101399.28;5151139;27;1468;-32
2022/02/03 21:00:00;;;;;;;;;;;;;;;19.43;56.89;101394.16;5151918;27;1069;-32
2022/02/03 21:02:36;;;;;;;;;;;;;;;19.40;56.49;101395.25;5151053;27;1554;-32
2022/02/03 21:05:08;;;;;;;;;;;;;;;19.38;56.53;101393.69;5150405;27;1976;-32
2022/02/03 21:07:35;;;;;;;;;;;;;;;19.40;57.17;101387.22;5148220;27;1852;-32
2022/02/03 21:10:06;;;;;;;;;;;;;;;19.40;56.35;101392.56;5149850;27;1651;-32
2022/02/03 21:12:33;;;;;;;;;;;;;;;19.39;56.63;101408.78;5145973;27;1652;-32
2022/02/03 21:15:00;;;;;;;;;;;;;;;19.32;56.95;101408.44;5145380;27;1601;-32
2022/02/03 21:17:29;;;;;;;;;;;;;;;19.30;57.40;101429.16;5135914;27;1304;-32
2022/02/03 21:20:03;;;;;;;;;;;;;;;19.26;57.01;101419.66;5136343;27;1809;-33
2022/02/03 21:22:29;;;;;;;;;;;;;;;19.26;57.36;101433.91;5137002;27;1935;-32
2022/02/03 21:25:01;;;;;;;;;;;;;;;19.21;56.63;101421.81;5136579;27;1980;-33
2022/02/03 21:27:31;;;;;;;;;;;;;;;19.22;57.50;101421.72;5136623;27;1586;-32